sensor_id;sensor_type;location;lat;lon;timestamp;P1;durP1;ratioP1;P2;durP2;ratioP2
49450;SDS011;35336;48.400;10.886;2022-12-07T00:00:07;8.37;;;6.13;;
49450;SDS011;35336;48.400;10.886;2022-12-07T00:00:23;9.00;;;6.20;;
49450;SDS011;35336;48.400;10.886;2022-12-07T00:00:38;7.90;;;6.45;;
49450;SDS011;35336;48.400;10.886;2022-12-07T00:00:54;8.00;;;6.80;;
49450;SDS011;35336;48.400;10.886;2022-12-07T00:01:12;8.40;;;6.60;;
49450;SDS011;35336;48.400;10.886;2022-12-07T00:01:30;8.35;;;6.40;;
49450;SDS011;35336;48.400;10.886;2022-12-07T00:01:47;9.85;;;6.80;;
49450;SDS011;35336;48.400;10.886;2022-12-07T00:02:02;9.77;;;6.40;;
49450;SDS011;35336;48.400;10.886;2022-12-07T00:02:17;8.23;;;6.43;;
49450;SDS011;35336;48.400;10.886;2022-12-07T00:02:33;7.47;;;6.50;;
49450;SDS011;35336;48.400;10.886;2022-12-07T00:02:48;7.27;;;6.23;;
49450;SDS011;35336;48.400;10.886;2022-12-07T00:03:03;7.60;;;6.38;;
49450;SDS011;35336;48.400;10.886;2022-12-07T00:03:18;8.00;;;6.57;;
49450;SDS011;35336;48.400;10.886;2022-12-07T00:03:34;7.90;;;6.63;;
49450;SDS011;35336;48.400;10.886;2022-12-07T00:03:51;9.07;;;6.57;;
49450;SDS011;35336;48.400;10.886;2022-12-07T00:04:10;9.50;;;6.32;;
49450;SDS011;35336;48.400;10.886;2022-12-07T00:04:27;9.15;;;6.40;;
49450;SDS011;35336;48.400;10.886;2022-12-07T00:04:42;9.15;;;6.50;;
49450;SDS011;35336;48.400;10.886;2022-12-07T00:04:58;9.90;;;6.40;;
49450;SDS011;35336;48.400;10.886;2022-12-07T00:05:13;10.10;;;6.63;;
49450;SDS011;35336;48.400;10.886;2022-12-07T00:05:29;9.10;;;6.50;;
49450;SDS011;35336;48.400;10.886;2022-12-07T00:05:44;8.98;;;6.55;;
49450;SDS011;35336;48.400;10.886;2022-12-07T00:06:00;7.80;;;6.70;;
49450;SDS011;35336;48.400;10.886;2022-12-07T00:06:17;7.43;;;6.60;;
49450;SDS011;35336;48.400;10.886;2022-12-07T00:06:33;7.65;;;6.22;;
49450;SDS011;35336;48.400;10.886;2022-12-07T00:06:51;7.22;;;6.20;;
49450;SDS011;35336;48.400;10.886;2022-12-07T00:07:07;8.25;;;6.57;;
49450;SDS011;35336;48.400;10.886;2022-12-07T00:07:22;7.73;;;6.47;;
49450;SDS011;35336;48.400;10.886;2022-12-07T00:07:38;6.97;;;6.27;;
49450;SDS011;35336;48.400;10.886;2022-12-07T00:07:53;7.63;;;6.78;;
49450;SDS011;35336;48.400;10.886;2022-12-07T00:08:08;8.07;;;7.00;;
49450;SDS011;35336;48.400;10.886;2022-12-07T00:08:24;7.00;;;6.30;;
49450;SDS011;35336;48.400;10.886;2022-12-07T00:08:39;9.20;;;6.22;;
49450;SDS011;35336;48.400;10.886;2022-12-07T00:08:54;11.50;;;6.57;;
49450;SDS011;35336;48.400;10.886;2022-12-07T00:09:11;9.10;;;6.53;;
49450;SDS011;35336;48.400;10.886;2022-12-07T00:09:28;9.23;;;6.32;;
49450;SDS011;35336;48.400;10.886;2022-12-07T00:09:43;9.60;;;6.07;;
49450;SDS011;35336;48.400;10.886;2022-12-07T00:09:58;9.07;;;6.20;;
49450;SDS011;35336;48.400;10.886;2022-12-07T00:10:14;8.70;;;6.20;;
49450;SDS011;35336;48.400;10.886;2022-12-07T00:10:29;8.03;;;6.43;;
49450;SDS011;35336;48.400;10.886;2022-12-07T00:10:44;8.00;;;6.60;;
49450;SDS011;35336;48.400;10.886;2022-12-07T00:11:14;8.10;;;6.80;;
49450;SDS011;35336;48.400;10.886;2022-12-07T00:11:31;9.07;;;6.35;;
49450;SDS011;35336;48.400;10.886;2022-12-07T00:11:48;10.27;;;6.63;;
49450;SDS011;35336;48.400;10.886;2022-12-07T00:12:05;8.82;;;6.85;;
49450;SDS011;35336;48.400;10.886;2022-12-07T00:12:20;9.37;;;7.03;;
49450;SDS011;35336;48.400;10.886;2022-12-07T00:12:35;8.97;;;7.17;;
49450;SDS011;35336;48.400;10.886;2022-12-07T00:12:51;8.93;;;7.03;;
49450;SDS011;35336;48.400;10.886;2022-12-07T00:13:06;9.07;;;7.05;;
49450;SDS011;35336;48.400;10.886;2022-12-07T00:13:21;8.70;;;7.10;;
49450;SDS011;35336;48.400;10.886;2022-12-07T00:13:37;8.43;;;7.43;;
49450;SDS011;35336;48.400;10.886;2022-12-07T00:13:54;7.93;;;7.13;;
49450;SDS011;35336;48.400;10.886;2022-12-07T00:14:13;8.57;;;7.10;;
49450;SDS011;35336;48.400;10.886;2022-12-07T00:14:29;7.78;;;6.88;;
49450;SDS011;35336;48.400;10.886;2022-12-07T00:14:44;8.07;;;6.97;;
49450;SDS011;35336;48.400;10.886;2022-12-07T00:15:00;8.43;;;6.82;;
49450;SDS011;35336;48.400;10.886;2022-12-07T00:15:15;8.60;;;6.60;;
49450;SDS011;35336;48.400;10.886;2022-12-07T00:15:32;8.65;;;6.80;;
49450;SDS011;35336;48.400;10.886;2022-12-07T00:15:48;8.13;;;6.63;;
49450;SDS011;35336;48.400;10.886;2022-12-07T00:16:07;7.72;;;6.57;;
49450;SDS011;35336;48.400;10.886;2022-12-07T00:16:26;8.20;;;7.13;;
49450;SDS011;35336;48.400;10.886;2022-12-07T00:16:43;7.72;;;6.88;;
49450;SDS011;35336;48.400;10.886;2022-12-07T00:16:59;7.85;;;6.97;;
49450;SDS011;35336;48.400;10.886;2022-12-07T00:17:15;8.55;;;7.53;;
49450;SDS011;35336;48.400;10.886;2022-12-07T00:17:30;9.10;;;7.70;;
49450;SDS011;35336;48.400;10.886;2022-12-07T00:17:45;9.73;;;7.40;;
49450;SDS011;35336;48.400;10.886;2022-12-07T00:18:00;10.70;;;7.50;;
49450;SDS011;35336;48.400;10.886;2022-12-07T00:18:16;9.33;;;7.30;;
49450;SDS011;35336;48.400;10.886;2022-12-07T00:18:31;7.87;;;6.90;;
49450;SDS011;35336;48.400;10.886;2022-12-07T00:18:47;8.40;;;7.10;;
49450;SDS011;35336;48.400;10.886;2022-12-07T00:19:03;9.20;;;7.22;;
49450;SDS011;35336;48.400;10.886;2022-12-07T00:19:19;8.30;;;6.80;;
49450;SDS011;35336;48.400;10.886;2022-12-07T00:19:34;8.83;;;6.60;;
49450;SDS011;35336;48.400;10.886;2022-12-07T00:19:49;10.15;;;7.07;;
49450;SDS011;35336;48.400;10.886;2022-12-07T00:20:05;9.73;;;7.43;;
49450;SDS011;35336;48.400;10.886;2022-12-07T00:20:21;9.73;;;7.30;;
49450;SDS011;35336;48.400;10.886;2022-12-07T00:20:36;8.53;;;6.83;;
49450;SDS011;35336;48.400;10.886;2022-12-07T00:20:51;7.93;;;6.82;;
49450;SDS011;35336;48.400;10.886;2022-12-07T00:21:10;7.87;;;6.90;;
49450;SDS011;35336;48.400;10.886;2022-12-07T00:21:28;7.30;;;6.50;;
49450;SDS011;35336;48.400;10.886;2022-12-07T00:21:45;7.10;;;6.40;;
49450;SDS011;35336;48.400;10.886;2022-12-07T00:22:01;6.87;;;6.27;;
49450;SDS011;35336;48.400;10.886;2022-12-07T00:22:16;7.20;;;6.50;;
49450;SDS011;35336;48.400;10.886;2022-12-07T00:22:31;7.43;;;6.63;;
49450;SDS011;35336;48.400;10.886;2022-12-07T00:22:46;7.40;;;6.60;;
49450;SDS011;35336;48.400;10.886;2022-12-07T00:23:02;8.20;;;6.67;;
49450;SDS011;35336;48.400;10.886;2022-12-07T00:23:17;8.30;;;6.53;;
49450;SDS011;35336;48.400;10.886;2022-12-07T00:23:33;7.90;;;6.50;;
49450;SDS011;35336;48.400;10.886;2022-12-07T00:23:49;7.93;;;6.72;;
49450;SDS011;35336;48.400;10.886;2022-12-07T00:24:06;8.80;;;7.03;;
49450;SDS011;35336;48.400;10.886;2022-12-07T00:24:22;7.93;;;6.83;;
49450;SDS011;35336;48.400;10.886;2022-12-07T00:24:37;8.03;;;6.57;;
49450;SDS011;35336;48.400;10.886;2022-12-07T00:24:52;8.38;;;6.65;;
49450;SDS011;35336;48.400;10.886;2022-12-07T00:25:08;9.67;;;6.80;;
49450;SDS011;35336;48.400;10.886;2022-12-07T00:25:23;9.15;;;6.50;;
49450;SDS011;35336;48.400;10.886;2022-12-07T00:25:38;7.30;;;6.53;;
49450;SDS011;35336;48.400;10.886;2022-12-07T00:25:54;8.30;;;6.70;;
49450;SDS011;35336;48.400;10.886;2022-12-07T00:26:10;9.88;;;6.82;;
49450;SDS011;35336;48.400;10.886;2022-12-07T00:26:29;9.15;;;7.15;;
49450;SDS011;35336;48.400;10.886;2022-12-07T00:26:46;7.78;;;6.97;;
49450;SDS011;35336;48.400;10.886;2022-12-07T00:27:01;8.10;;;6.70;;
49450;SDS011;35336;48.400;10.886;2022-12-07T00:27:16;9.37;;;6.60;;
49450;SDS011;35336;48.400;10.886;2022-12-07T00:27:31;8.90;;;6.63;;
49450;SDS011;35336;48.400;10.886;2022-12-07T00:27:47;8.00;;;7.20;;
49450;SDS011;35336;48.400;10.886;2022-12-07T00:28:02;8.75;;;7.85;;
49450;SDS011;35336;48.400;10.886;2022-12-07T00:28:18;11.47;;;7.70;;
49450;SDS011;35336;48.400;10.886;2022-12-07T00:28:33;11.68;;;7.30;;
49450;SDS011;35336;48.400;10.886;2022-12-07T00:28:52;9.30;;;7.17;;
49450;SDS011;35336;48.400;10.886;2022-12-07T00:29:12;9.07;;;7.05;;
49450;SDS011;35336;48.400;10.886;2022-12-07T00:29:30;9.37;;;7.37;;
49450;SDS011;35336;48.400;10.886;2022-12-07T00:29:45;9.90;;;7.40;;
49450;SDS011;35336;48.400;10.886;2022-12-07T00:30:00;8.73;;;7.20;;
49450;SDS011;35336;48.400;10.886;2022-12-07T00:30:16;8.02;;;7.07;;
49450;SDS011;35336;48.400;10.886;2022-12-07T00:30:31;8.50;;;7.03;;
49450;SDS011;35336;48.400;10.886;2022-12-07T00:30:46;8.17;;;6.80;;
49450;SDS011;35336;48.400;10.886;2022-12-07T00:31:05;7.97;;;6.80;;
49450;SDS011;35336;48.400;10.886;2022-12-07T00:31:24;8.93;;;6.75;;
49450;SDS011;35336;48.400;10.886;2022-12-07T00:31:41;8.30;;;6.90;;
49450;SDS011;35336;48.400;10.886;2022-12-07T00:31:56;8.27;;;7.07;;
49450;SDS011;35336;48.400;10.886;2022-12-07T00:32:11;8.10;;;7.20;;
49450;SDS011;35336;48.400;10.886;2022-12-07T00:32:27;8.07;;;7.23;;
49450;SDS011;35336;48.400;10.886;2022-12-07T00:32:42;7.33;;;6.63;;
49450;SDS011;35336;48.400;10.886;2022-12-07T00:32:57;7.47;;;6.67;;
49450;SDS011;35336;48.400;10.886;2022-12-07T00:33:13;8.38;;;6.93;;
49450;SDS011;35336;48.400;10.886;2022-12-07T00:33:28;8.37;;;6.63;;
49450;SDS011;35336;48.400;10.886;2022-12-07T00:33:43;8.77;;;6.60;;
49450;SDS011;35336;48.400;10.886;2022-12-07T00:33:59;10.43;;;6.82;;
49450;SDS011;35336;48.400;10.886;2022-12-07T00:34:16;10.63;;;7.10;;
49450;SDS011;35336;48.400;10.886;2022-12-07T00:34:33;8.55;;;6.43;;
49450;SDS011;35336;48.400;10.886;2022-12-07T00:34:49;8.93;;;6.40;;
49450;SDS011;35336;48.400;10.886;2022-12-07T00:35:04;9.27;;;6.87;;
49450;SDS011;35336;48.400;10.886;2022-12-07T00:35:20;8.45;;;6.85;;
49450;SDS011;35336;48.400;10.886;2022-12-07T00:35:35;7.30;;;6.60;;
49450;SDS011;35336;48.400;10.886;2022-12-07T00:35:54;7.97;;;6.87;;
49450;SDS011;35336;48.400;10.886;2022-12-07T00:36:14;8.68;;;7.07;;
49450;SDS011;35336;48.400;10.886;2022-12-07T00:36:32;8.90;;;7.20;;
49450;SDS011;35336;48.400;10.886;2022-12-07T00:36:48;9.07;;;7.30;;
49450;SDS011;35336;48.400;10.886;2022-12-07T00:37:03;9.00;;;7.15;;
49450;SDS011;35336;48.400;10.886;2022-12-07T00:37:19;8.50;;;7.07;;
49450;SDS011;35336;48.400;10.886;2022-12-07T00:37:34;8.17;;;7.07;;
49450;SDS011;35336;48.400;10.886;2022-12-07T00:37:49;7.88;;;6.75;;
49450;SDS011;35336;48.400;10.886;2022-12-07T00:38:05;7.07;;;6.37;;
49450;SDS011;35336;48.400;10.886;2022-12-07T00:38:20;7.70;;;6.70;;
49450;SDS011;35336;48.400;10.886;2022-12-07T00:38:35;7.93;;;7.00;;
49450;SDS011;35336;48.400;10.886;2022-12-07T00:38:52;7.93;;;7.10;;
49450;SDS011;35336;48.400;10.886;2022-12-07T00:39:12;7.65;;;6.82;;
49450;SDS011;35336;48.400;10.886;2022-12-07T00:39:28;7.33;;;6.60;;
49450;SDS011;35336;48.400;10.886;2022-12-07T00:39:43;7.77;;;6.97;;
49450;SDS011;35336;48.400;10.886;2022-12-07T00:40:00;7.85;;;7.05;;
49450;SDS011;35336;48.400;10.886;2022-12-07T00:40:16;7.63;;;6.80;;
49450;SDS011;35336;48.400;10.886;2022-12-07T00:40:31;8.23;;;6.70;;
49450;SDS011;35336;48.400;10.886;2022-12-07T00:40:53;8.05;;;6.88;;
49450;SDS011;35336;48.400;10.886;2022-12-07T00:41:13;7.47;;;6.60;;
49450;SDS011;35336;48.400;10.886;2022-12-07T00:41:30;7.57;;;6.68;;
49450;SDS011;35336;48.400;10.886;2022-12-07T00:41:46;8.17;;;6.77;;
49450;SDS011;35336;48.400;10.886;2022-12-07T00:42:01;8.30;;;6.90;;
49450;SDS011;35336;48.400;10.886;2022-12-07T00:42:17;8.10;;;6.83;;
49450;SDS011;35336;48.400;10.886;2022-12-07T00:42:32;8.10;;;6.63;;
49450;SDS011;35336;48.400;10.886;2022-12-07T00:42:47;8.20;;;6.95;;
49450;SDS011;35336;48.400;10.886;2022-12-07T00:43:03;8.23;;;7.27;;
49450;SDS011;35336;48.400;10.886;2022-12-07T00:43:18;8.25;;;7.30;;
49450;SDS011;35336;48.400;10.886;2022-12-07T00:43:33;8.63;;;7.10;;
49450;SDS011;35336;48.400;10.886;2022-12-07T00:43:49;8.60;;;7.00;;
49450;SDS011;35336;48.400;10.886;2022-12-07T00:44:05;8.27;;;7.22;;
49450;SDS011;35336;48.400;10.886;2022-12-07T00:44:20;9.35;;;7.32;;
49450;SDS011;35336;48.400;10.886;2022-12-07T00:44:35;10.37;;;7.23;;
49450;SDS011;35336;48.400;10.886;2022-12-07T00:44:51;8.63;;;6.93;;
49450;SDS011;35336;48.400;10.886;2022-12-07T00:45:06;7.80;;;6.80;;
49450;SDS011;35336;48.400;10.886;2022-12-07T00:45:22;8.07;;;7.03;;
49450;SDS011;35336;48.400;10.886;2022-12-07T00:45:38;7.87;;;7.00;;
49450;SDS011;35336;48.400;10.886;2022-12-07T00:45:53;10.15;;;7.18;;
49450;SDS011;35336;48.400;10.886;2022-12-07T00:46:09;10.63;;;7.30;;
49450;SDS011;35336;48.400;10.886;2022-12-07T00:46:25;8.57;;;7.28;;
49450;SDS011;35336;48.400;10.886;2022-12-07T00:46:40;8.15;;;7.13;;
49450;SDS011;35336;48.400;10.886;2022-12-07T00:46:55;8.67;;;7.20;;
49450;SDS011;35336;48.400;10.886;2022-12-07T00:47:11;9.27;;;7.57;;
49450;SDS011;35336;48.400;10.886;2022-12-07T00:47:26;8.57;;;7.27;;
49450;SDS011;35336;48.400;10.886;2022-12-07T00:47:41;7.93;;;6.90;;
49450;SDS011;35336;48.400;10.886;2022-12-07T00:47:57;8.70;;;7.10;;
49450;SDS011;35336;48.400;10.886;2022-12-07T00:48:12;9.25;;;7.35;;
49450;SDS011;35336;48.400;10.886;2022-12-07T00:48:27;8.97;;;7.20;;
49450;SDS011;35336;48.400;10.886;2022-12-07T00:48:43;7.65;;;6.78;;
49450;SDS011;35336;48.400;10.886;2022-12-07T00:48:58;7.60;;;6.80;;
49450;SDS011;35336;48.400;10.886;2022-12-07T00:49:14;7.95;;;6.97;;
49450;SDS011;35336;48.400;10.886;2022-12-07T00:49:29;8.57;;;7.27;;
49450;SDS011;35336;48.400;10.886;2022-12-07T00:49:45;10.07;;;7.97;;
49450;SDS011;35336;48.400;10.886;2022-12-07T00:50:00;9.73;;;7.60;;
49450;SDS011;35336;48.400;10.886;2022-12-07T00:50:15;9.77;;;7.67;;
49450;SDS011;35336;48.400;10.886;2022-12-07T00:50:31;11.57;;;7.50;;
49450;SDS011;35336;48.400;10.886;2022-12-07T00:50:46;10.67;;;7.07;;
49450;SDS011;35336;48.400;10.886;2022-12-07T00:51:02;9.15;;;7.22;;
49450;SDS011;35336;48.400;10.886;2022-12-07T00:51:20;8.88;;;7.30;;
49450;SDS011;35336;48.400;10.886;2022-12-07T00:51:37;7.68;;;6.88;;
49450;SDS011;35336;48.400;10.886;2022-12-07T00:51:53;7.85;;;7.00;;
49450;SDS011;35336;48.400;10.886;2022-12-07T00:52:08;8.00;;;7.20;;
49450;SDS011;35336;48.400;10.886;2022-12-07T00:52:23;7.77;;;6.90;;
49450;SDS011;35336;48.400;10.886;2022-12-07T00:52:39;8.55;;;6.95;;
49450;SDS011;35336;48.400;10.886;2022-12-07T00:52:54;9.17;;;7.30;;
49450;SDS011;35336;48.400;10.886;2022-12-07T00:53:09;8.47;;;7.30;;
49450;SDS011;35336;48.400;10.886;2022-12-07T00:53:26;8.00;;;7.20;;
49450;SDS011;35336;48.400;10.886;2022-12-07T00:53:42;8.10;;;7.30;;
49450;SDS011;35336;48.400;10.886;2022-12-07T00:53:57;8.27;;;7.13;;
49450;SDS011;35336;48.400;10.886;2022-12-07T00:54:13;8.30;;;7.30;;
49450;SDS011;35336;48.400;10.886;2022-12-07T00:54:28;8.00;;;7.17;;
49450;SDS011;35336;48.400;10.886;2022-12-07T00:54:44;8.32;;;7.05;;
49450;SDS011;35336;48.400;10.886;2022-12-07T00:54:59;8.23;;;7.00;;
49450;SDS011;35336;48.400;10.886;2022-12-07T00:55:14;8.15;;;7.25;;
49450;SDS011;35336;48.400;10.886;2022-12-07T00:55:32;8.87;;;7.57;;
49450;SDS011;35336;48.400;10.886;2022-12-07T00:55:48;8.82;;;7.25;;
49450;SDS011;35336;48.400;10.886;2022-12-07T00:56:05;9.27;;;7.10;;
49450;SDS011;35336;48.400;10.886;2022-12-07T00:56:22;8.30;;;7.10;;
49450;SDS011;35336;48.400;10.886;2022-12-07T00:56:39;7.63;;;6.82;;
49450;SDS011;35336;48.400;10.886;2022-12-07T00:56:54;8.35;;;7.10;;
49450;SDS011;35336;48.400;10.886;2022-12-07T00:57:10;8.90;;;7.67;;
49450;SDS011;35336;48.400;10.886;2022-12-07T00:57:25;10.17;;;7.53;;
49450;SDS011;35336;48.400;10.886;2022-12-07T00:57:40;10.25;;;7.15;;
49450;SDS011;35336;48.400;10.886;2022-12-07T00:57:56;9.50;;;7.20;;
49450;SDS011;35336;48.400;10.886;2022-12-07T00:58:11;8.43;;;7.03;;
49450;SDS011;35336;48.400;10.886;2022-12-07T00:58:26;7.95;;;7.15;;
49450;SDS011;35336;48.400;10.886;2022-12-07T00:58:42;8.63;;;7.03;;
49450;SDS011;35336;48.400;10.886;2022-12-07T00:58:58;8.73;;;6.90;;
49450;SDS011;35336;48.400;10.886;2022-12-07T00:59:15;12.13;;;7.05;;
49450;SDS011;35336;48.400;10.886;2022-12-07T00:59:31;11.97;;;6.80;;
49450;SDS011;35336;48.400;10.886;2022-12-07T00:59:46;8.50;;;6.70;;
49450;SDS011;35336;48.400;10.886;2022-12-07T01:00:02;8.32;;;6.95;;
49450;SDS011;35336;48.400;10.886;2022-12-07T01:00:18;8.80;;;7.33;;
49450;SDS011;35336;48.400;10.886;2022-12-07T01:00:35;9.05;;;7.32;;
49450;SDS011;35336;48.400;10.886;2022-12-07T01:00:51;9.75;;;7.28;;
49450;SDS011;35336;48.400;10.886;2022-12-07T01:01:08;10.03;;;7.37;;
49450;SDS011;35336;48.400;10.886;2022-12-07T01:01:26;9.32;;;7.38;;
49450;SDS011;35336;48.400;10.886;2022-12-07T01:01:43;8.90;;;7.38;;
49450;SDS011;35336;48.400;10.886;2022-12-07T01:01:58;8.77;;;7.43;;
49450;SDS011;35336;48.400;10.886;2022-12-07T01:02:14;9.23;;;7.13;;
49450;SDS011;35336;48.400;10.886;2022-12-07T01:02:29;8.63;;;6.82;;
49450;SDS011;35336;48.400;10.886;2022-12-07T01:02:44;7.53;;;6.73;;
49450;SDS011;35336;48.400;10.886;2022-12-07T01:02:59;8.50;;;7.23;;
49450;SDS011;35336;48.400;10.886;2022-12-07T01:03:15;9.20;;;7.80;;
49450;SDS011;35336;48.400;10.886;2022-12-07T01:03:31;8.68;;;7.60;;
49450;SDS011;35336;48.400;10.886;2022-12-07T01:03:47;8.43;;;7.53;;
49450;SDS011;35336;48.400;10.886;2022-12-07T01:04:02;10.68;;;7.47;;
49450;SDS011;35336;48.400;10.886;2022-12-07T01:04:18;11.00;;;7.37;;
49450;SDS011;35336;48.400;10.886;2022-12-07T01:04:34;8.83;;;6.97;;
49450;SDS011;35336;48.400;10.886;2022-12-07T01:04:49;10.32;;;7.07;;
49450;SDS011;35336;48.400;10.886;2022-12-07T01:05:04;9.73;;;7.10;;
49450;SDS011;35336;48.400;10.886;2022-12-07T01:05:20;10.23;;;7.03;;
49450;SDS011;35336;48.400;10.886;2022-12-07T01:05:36;10.00;;;7.33;;
49450;SDS011;35336;48.400;10.886;2022-12-07T01:05:52;7.93;;;7.13;;
49450;SDS011;35336;48.400;10.886;2022-12-07T01:06:08;7.60;;;6.80;;
49450;SDS011;35336;48.400;10.886;2022-12-07T01:06:24;7.60;;;6.77;;
49450;SDS011;35336;48.400;10.886;2022-12-07T01:06:40;7.93;;;6.82;;
49450;SDS011;35336;48.400;10.886;2022-12-07T01:06:55;8.87;;;7.17;;
49450;SDS011;35336;48.400;10.886;2022-12-07T01:07:10;8.70;;;7.23;;
49450;SDS011;35336;48.400;10.886;2022-12-07T01:07:25;7.93;;;7.13;;
49450;SDS011;35336;48.400;10.886;2022-12-07T01:07:41;8.18;;;7.25;;
49450;SDS011;35336;48.400;10.886;2022-12-07T01:07:56;7.87;;;7.00;;
49450;SDS011;35336;48.400;10.886;2022-12-07T01:08:12;8.05;;;6.80;;
49450;SDS011;35336;48.400;10.886;2022-12-07T01:08:27;8.07;;;6.93;;
49450;SDS011;35336;48.400;10.886;2022-12-07T01:08:43;8.15;;;6.93;;
49450;SDS011;35336;48.400;10.886;2022-12-07T01:08:59;7.70;;;6.65;;
49450;SDS011;35336;48.400;10.886;2022-12-07T01:09:15;7.63;;;6.82;;
49450;SDS011;35336;48.400;10.886;2022-12-07T01:09:30;7.70;;;6.90;;
49450;SDS011;35336;48.400;10.886;2022-12-07T01:09:46;7.70;;;6.90;;
49450;SDS011;35336;48.400;10.886;2022-12-07T01:10:01;8.23;;;6.93;;
49450;SDS011;35336;48.400;10.886;2022-12-07T01:10:16;8.70;;;6.57;;
49450;SDS011;35336;48.400;10.886;2022-12-07T01:10:32;7.90;;;6.47;;
49450;SDS011;35336;48.400;10.886;2022-12-07T01:10:48;9.55;;;6.93;;
49450;SDS011;35336;48.400;10.886;2022-12-07T01:11:04;10.15;;;7.15;;
49450;SDS011;35336;48.400;10.886;2022-12-07T01:11:23;8.07;;;7.00;;
49450;SDS011;35336;48.400;10.886;2022-12-07T01:11:40;7.32;;;6.60;;
49450;SDS011;35336;48.400;10.886;2022-12-07T01:11:55;7.57;;;6.72;;
49450;SDS011;35336;48.400;10.886;2022-12-07T01:12:11;7.43;;;6.63;;
49450;SDS011;35336;48.400;10.886;2022-12-07T01:12:26;7.97;;;7.00;;
49450;SDS011;35336;48.400;10.886;2022-12-07T01:12:41;8.32;;;6.97;;
49450;SDS011;35336;48.400;10.886;2022-12-07T01:12:57;8.00;;;6.73;;
49450;SDS011;35336;48.400;10.886;2022-12-07T01:13:13;9.60;;;7.03;;
49450;SDS011;35336;48.400;10.886;2022-12-07T01:13:29;9.60;;;6.70;;
49450;SDS011;35336;48.400;10.886;2022-12-07T01:13:45;8.73;;;6.68;;
49450;SDS011;35336;48.400;10.886;2022-12-07T01:14:01;8.25;;;6.68;;
49450;SDS011;35336;48.400;10.886;2022-12-07T01:14:17;8.13;;;6.85;;
49450;SDS011;35336;48.400;10.886;2022-12-07T01:14:33;7.87;;;7.00;;
49450;SDS011;35336;48.400;10.886;2022-12-07T01:14:48;7.53;;;6.72;;
49450;SDS011;35336;48.400;10.886;2022-12-07T01:15:04;7.40;;;6.40;;
49450;SDS011;35336;48.400;10.886;2022-12-07T01:15:20;7.72;;;6.55;;
49450;SDS011;35336;48.400;10.886;2022-12-07T01:15:38;8.63;;;6.87;;
49450;SDS011;35336;48.400;10.886;2022-12-07T01:15:57;8.45;;;6.60;;
49450;SDS011;35336;48.400;10.886;2022-12-07T01:16:14;7.57;;;6.70;;
49450;SDS011;35336;48.400;10.886;2022-12-07T01:16:31;7.50;;;6.38;;
49450;SDS011;35336;48.400;10.886;2022-12-07T01:16:47;6.82;;;6.13;;
49450;SDS011;35336;48.400;10.886;2022-12-07T01:17:02;8.03;;;6.70;;
49450;SDS011;35336;48.400;10.886;2022-12-07T01:17:18;8.53;;;6.73;;
49450;SDS011;35336;48.400;10.886;2022-12-07T01:17:33;8.90;;;6.97;;
49450;SDS011;35336;48.400;10.886;2022-12-07T01:17:49;9.38;;;7.25;;
49450;SDS011;35336;48.400;10.886;2022-12-07T01:18:05;7.83;;;6.93;;
49450;SDS011;35336;48.400;10.886;2022-12-07T01:18:20;7.80;;;7.00;;
49450;SDS011;35336;48.400;10.886;2022-12-07T01:18:36;7.43;;;6.70;;
49450;SDS011;35336;48.400;10.886;2022-12-07T01:18:52;7.50;;;6.80;;
49450;SDS011;35336;48.400;10.886;2022-12-07T01:19:08;10.57;;;7.10;;
49450;SDS011;35336;48.400;10.886;2022-12-07T01:19:24;10.27;;;6.70;;
49450;SDS011;35336;48.400;10.886;2022-12-07T01:19:39;7.60;;;6.70;;
49450;SDS011;35336;48.400;10.886;2022-12-07T01:19:54;8.20;;;6.60;;
49450;SDS011;35336;48.400;10.886;2022-12-07T01:20:10;8.03;;;6.53;;
49450;SDS011;35336;48.400;10.886;2022-12-07T01:20:26;7.75;;;6.40;;
49450;SDS011;35336;48.400;10.886;2022-12-07T01:20:41;7.75;;;6.50;;
49450;SDS011;35336;48.400;10.886;2022-12-07T01:21:00;8.83;;;6.67;;
49450;SDS011;35336;48.400;10.886;2022-12-07T01:21:18;8.75;;;6.78;;
49450;SDS011;35336;48.400;10.886;2022-12-07T01:21:42;8.40;;;7.40;;
49450;SDS011;35336;48.400;10.886;2022-12-07T01:21:57;7.80;;;6.93;;
49450;SDS011;35336;48.400;10.886;2022-12-07T01:22:12;8.20;;;6.97;;
49450;SDS011;35336;48.400;10.886;2022-12-07T01:22:28;8.13;;;7.10;;
49450;SDS011;35336;48.400;10.886;2022-12-07T01:22:43;8.65;;;7.35;;
49450;SDS011;35336;48.400;10.886;2022-12-07T01:22:58;9.03;;;7.33;;
49450;SDS011;35336;48.400;10.886;2022-12-07T01:23:14;8.55;;;6.90;;
49450;SDS011;35336;48.400;10.886;2022-12-07T01:23:29;8.10;;;6.70;;
49450;SDS011;35336;48.400;10.886;2022-12-07T01:23:45;7.65;;;6.63;;
49450;SDS011;35336;48.400;10.886;2022-12-07T01:24:00;9.13;;;6.93;;
49450;SDS011;35336;48.400;10.886;2022-12-07T01:24:16;8.65;;;6.55;;
49450;SDS011;35336;48.400;10.886;2022-12-07T01:24:31;8.03;;;6.37;;
49450;SDS011;35336;48.400;10.886;2022-12-07T01:24:47;8.55;;;6.82;;
49450;SDS011;35336;48.400;10.886;2022-12-07T01:25:02;7.50;;;6.50;;
49450;SDS011;35336;48.400;10.886;2022-12-07T01:25:18;7.07;;;6.20;;
49450;SDS011;35336;48.400;10.886;2022-12-07T01:25:33;7.93;;;6.50;;
49450;SDS011;35336;48.400;10.886;2022-12-07T01:25:56;7.33;;;6.43;;
49450;SDS011;35336;48.400;10.886;2022-12-07T01:26:13;7.78;;;6.47;;
49450;SDS011;35336;48.400;10.886;2022-12-07T01:26:30;7.03;;;6.32;;
49450;SDS011;35336;48.400;10.886;2022-12-07T01:26:48;6.80;;;6.07;;
49450;SDS011;35336;48.400;10.886;2022-12-07T01:27:04;7.35;;;6.25;;
49450;SDS011;35336;48.400;10.886;2022-12-07T01:27:19;8.17;;;6.53;;
49450;SDS011;35336;48.400;10.886;2022-12-07T01:27:34;8.87;;;6.93;;
49450;SDS011;35336;48.400;10.886;2022-12-07T01:27:50;8.13;;;6.95;;
49450;SDS011;35336;48.400;10.886;2022-12-07T01:28:06;8.70;;;6.93;;
49450;SDS011;35336;48.400;10.886;2022-12-07T01:28:21;8.53;;;6.73;;
49450;SDS011;35336;48.400;10.886;2022-12-07T01:28:37;8.27;;;6.50;;
49450;SDS011;35336;48.400;10.886;2022-12-07T01:28:52;8.23;;;6.50;;
49450;SDS011;35336;48.400;10.886;2022-12-07T01:29:08;7.73;;;6.50;;
49450;SDS011;35336;48.400;10.886;2022-12-07T01:29:23;8.37;;;6.50;;
49450;SDS011;35336;48.400;10.886;2022-12-07T01:29:39;9.80;;;6.63;;
49450;SDS011;35336;48.400;10.886;2022-12-07T01:29:54;8.97;;;6.83;;
49450;SDS011;35336;48.400;10.886;2022-12-07T01:30:09;7.57;;;6.75;;
49450;SDS011;35336;48.400;10.886;2022-12-07T01:30:25;8.52;;;6.80;;
49450;SDS011;35336;48.400;10.886;2022-12-07T01:30:41;8.77;;;6.83;;
49450;SDS011;35336;48.400;10.886;2022-12-07T01:31:00;9.17;;;6.63;;
49450;SDS011;35336;48.400;10.886;2022-12-07T01:31:24;8.75;;;6.78;;
49450;SDS011;35336;48.400;10.886;2022-12-07T01:31:41;8.05;;;6.78;;
49450;SDS011;35336;48.400;10.886;2022-12-07T01:31:56;8.70;;;7.03;;
49450;SDS011;35336;48.400;10.886;2022-12-07T01:32:11;9.82;;;7.10;;
49450;SDS011;35336;48.400;10.886;2022-12-07T01:32:27;8.57;;;6.47;;
49450;SDS011;35336;48.400;10.886;2022-12-07T01:32:43;7.10;;;6.40;;
49450;SDS011;35336;48.400;10.886;2022-12-07T01:32:59;7.43;;;6.73;;
49450;SDS011;35336;48.400;10.886;2022-12-07T01:33:14;7.47;;;6.55;;
49450;SDS011;35336;48.400;10.886;2022-12-07T01:33:31;7.90;;;6.53;;
49450;SDS011;35336;48.400;10.886;2022-12-07T01:33:50;8.00;;;6.88;;
49450;SDS011;35336;48.400;10.886;2022-12-07T01:34:10;8.70;;;7.00;;
49450;SDS011;35336;48.400;10.886;2022-12-07T01:34:25;7.80;;;6.60;;
49450;SDS011;35336;48.400;10.886;2022-12-07T01:34:40;7.40;;;6.67;;
49450;SDS011;35336;48.400;10.886;2022-12-07T01:34:56;7.73;;;6.80;;
49450;SDS011;35336;48.400;10.886;2022-12-07T01:35:11;8.00;;;6.65;;